Time;durP1;ratioP1;P1;durP2;ratioP2;P2;SDS_P1;SDS_P2;PMS_P1;PMS_P2;Temp;Humidity;BMP_temperature;BMP_pressure;BME280_temperature;BME280_humidity;BME280_pressure;Samples;Min_cycle;Max_cycle;Signal;HPM_P1;HPM_P2
2022/06/18 00:01:33;;;;;;;5.97;2.90;;;;;;;15.66;100.00;100182.70;1715402;82;20996;-56
2022/06/18 00:04:18;;;;;;;5.00;2.57;;;;;;;15.71;100.00;100178.89;1714114;83;21451;-57
2022/06/18 00:07:01;;;;;;;5.80;3.00;;;;;;;15.63;100.00;100184.92;1721997;82;21047;-56
2022/06/18 00:09:36;;;;;;;7.20;2.70;;;;;;;15.69;100.00;100178.33;1695016;83;22276;-58
2022/06/18 00:15:00;;;;;;;6.43;3.30;;;;;;;15.71;100.00;100185.98;1717836;83;21321;-57
2022/06/18 00:17:27;;;;;;;7.27;3.50;;;;;;;15.71;100.00;100188.09;1682277;83;21468;-55
2022/06/18 00:19:55;;;;;;;6.20;3.63;;;;;;;15.71;100.00;100184.66;1723005;83;21791;-57
2022/06/18 00:22:22;;;;;;;8.27;3.67;;;;;;;15.71;100.00;100186.78;1722835;82;21002;-57
2022/06/18 00:24:50;;;;;;;9.57;4.13;;;;;;;15.69;100.00;100179.64;1723364;83;21962;-57
2022/06/18 00:27:19;;;;;;;7.97;4.20;;;;;;;15.69;100.00;100179.64;1723056;83;21390;-56
2022/06/18 00:29:49;;;;;;;7.73;5.00;;;;;;;15.62;100.00;100182.81;1722861;83;21346;-55
2022/06/18 00:32:16;;;;;;;5.83;3.50;;;;;;;15.60;100.00;100182.21;1692356;84;20995;-58
2022/06/18 00:34:44;;;;;;;6.00;4.33;;;;;;;15.60;100.00;100180.89;1722219;82;21512;-58
2022/06/18 00:37:16;;;;;;;7.37;3.60;;;;;;;15.56;100.00;100184.98;1720875;82;22550;-55
2022/06/18 00:39:45;;;;;;;6.73;3.57;;;;;;;15.52;100.00;100178.55;1713843;83;21142;-55
2022/06/18 00:42:18;;;;;;;5.00;3.10;;;;;;;15.53;100.00;100182.78;1713708;83;21540;-64
2022/06/18 00:44:52;;;;;;;6.27;2.93;;;;;;;15.47;100.00;100179.73;1709453;83;21090;-56
2022/06/18 00:47:31;;;;;;;4.10;2.73;;;;;;;15.45;100.00;100183.06;1713683;83;20999;-56
2022/06/18 00:50:19;;;;;;;6.07;3.33;;;;;;;15.43;100.00;100178.55;1712890;83;22190;-58
2022/06/18 00:52:54;;;;;;;4.93;2.67;;;;;;;15.42;100.00;100181.70;1686854;83;21086;-56
2022/06/18 00:55:40;;;;;;;5.50;3.00;;;;;;;15.44;100.00;100186.72;1688076;84;21774;-63
2022/06/18 00:58:19;;;;;;;5.50;3.00;;;;;;;15.43;100.00;100183.81;1688486;84;21473;-59
2022/06/18 01:00:47;;;;;;;6.47;3.00;;;;;;;15.38;100.00;100180.52;1680910;83;21046;-55
2022/06/18 01:03:29;;;;;;;5.83;3.00;;;;;;;15.40;100.00;100188.97;1713342;83;22420;-56
2022/06/18 01:06:03;;;;;;;4.50;3.00;;;;;;;15.36;100.00;100188.31;1713535;83;21104;-56
2022/06/18 01:08:32;;;;;;;4.37;2.73;;;;;;;15.37;100.00;100185.97;1713414;83;21034;-55
2022/06/18 01:11:02;;;;;;;8.63;3.77;;;;;;;15.33;100.00;100192.97;1695761;83;21058;-59
2022/06/18 01:13:36;;;;;;;7.67;3.60;;;;;;;15.31;100.00;100195.02;1710892;82;22562;-64
2022/06/18 01:16:06;;;;;;;7.20;4.10;;;;;;;15.31;100.00;100195.02;1722469;83;22060;-57
2022/06/18 01:18:33;;;;;;;7.07;4.67;;;;;;;15.36;100.00;100196.20;1722678;83;22174;-56
2022/06/18 01:21:09;;;;;;;6.90;3.90;;;;;;;15.37;100.00;100200.42;1722552;83;21536;-57
2022/06/18 01:23:48;;;;;;;6.90;4.10;;;;;;;15.39;100.00;100190.52;1721902;82;21032;-61
2022/06/18 01:26:16;;;;;;;5.93;4.03;;;;;;;15.54;100.00;100193.61;1722740;83;21580;-63
2022/06/18 01:28:44;;;;;;;10.47;4.30;;;;;;;15.54;100.00;100193.61;1722484;82;21477;-55
2022/06/18 01:31:12;;;;;;;6.07;4.30;;;;;;;15.60;100.00;100190.09;1722893;83;21646;-57
2022/06/18 01:33:39;;;;;;;9.37;4.47;;;;;;;15.66;100.00;100189.27;1722305;82;21055;-57
2022/06/18 01:36:09;;;;;;;6.33;4.10;;;;;;;15.72;100.00;100194.97;1722808;83;22022;-59
2022/06/18 01:38:43;;;;;;;7.43;4.10;;;;;;;15.74;100.00;100197.38;1720801;83;21779;-56
2022/06/18 01:44:16;;;;;;;8.13;4.97;;;;;;;15.86;100.00;100198.25;1688312;84;21016;-56
2022/06/18 01:46:46;;;;;;;9.20;4.57;;;;;;;15.96;100.00;100191.17;1723129;83;21093;-64
2022/06/18 01:49:17;;;;;;;8.43;5.30;;;;;;;16.05;100.00;100195.10;1723327;82;21414;-56
2022/06/18 01:51:47;;;;;;;7.57;4.60;;;;;;;16.13;100.00;100197.95;1723109;83;21014;-64
2022/06/18 01:54:19;;;;;;;8.60;4.97;;;;;;;16.22;100.00;100196.64;1723750;82;21462;-59
2022/06/18 01:56:54;;;;;;;9.70;4.83;;;;;;;16.32;100.00;100198.73;1723188;81;21014;-65
2022/06/18 01:59:32;;;;;;;7.10;4.63;;;;;;;16.41;100.00;100205.30;1692967;83;21896;-62
2022/06/18 02:02:03;;;;;;;7.80;4.67;;;;;;;16.49;100.00;100201.04;1723303;81;21341;-56
2022/06/18 02:04:30;;;;;;;5.97;4.23;;;;;;;16.61;100.00;100203.72;1721683;82;21056;-62
2022/06/18 02:06:57;;;;;;;9.43;5.03;;;;;;;16.70;100.00;100203.67;1754168;80;22280;-62
2022/06/18 02:09:41;;;;;;;10.80;5.27;;;;;;;16.78;100.00;100204.21;1762318;80;21574;-56
2022/06/18 02:12:15;;;;;;;8.40;5.30;;;;;;;16.85;100.00;100203.29;1755856;80;20910;-56
2022/06/18 02:14:44;;;;;;;8.37;5.20;;;;;;;16.95;100.00;100202.23;1746166;80;20920;-56
2022/06/18 02:17:17;;;;;;;7.27;4.97;;;;;;;17.04;100.00;100198.23;1755135;80;21409;-57
2022/06/18 02:19:43;;;;;;;7.80;4.73;;;;;;;17.11;100.00;100200.25;1746776;80;21300;-56
2022/06/18 02:22:11;;;;;;;7.73;4.97;;;;;;;17.25;100.00;100201.64;1755143;80;20954;-56
2022/06/18 02:24:39;;;;;;;8.73;5.20;;;;;;;17.25;100.00;100201.64;1758660;80;21039;-61
2022/06/18 02:27:11;;;;;;;8.13;5.00;;;;;;;17.38;100.00;100205.88;1755227;80;21049;-56
2022/06/18 02:29:38;;;;;;;8.08;5.17;;;;;;;17.44;100.00;100200.22;1755138;80;20944;-55
2022/06/18 02:32:07;;;;;;;8.07;5.20;;;;;;;17.44;100.00;100204.17;1754676;80;21321;-57
2022/06/18 02:34:36;;;;;;;9.40;5.72;;;;;;;17.47;100.00;100203.73;1754504;80;20954;-61
2022/06/18 02:37:17;;;;;;;9.97;5.43;;;;;;;17.49;100.00;100204.28;1754756;80;21073;-56
2022/06/18 02:40:02;;;;;;;8.88;4.72;;;;;;;17.53;100.00;100207.27;1756109;80;21085;-57
2022/06/18 02:42:32;;;;;;;7.50;5.53;;;;;;;17.53;100.00;100202.78;1742484;81;21950;-58
2022/06/18 02:45:04;;;;;;;10.53;5.10;;;;;;;17.56;100.00;100206.28;1754240;80;21013;-56
2022/06/18 02:47:34;;;;;;;8.60;5.55;;;;;;;17.58;100.00;100202.92;1754549;80;21494;-55
2022/06/18 02:50:05;;;;;;;7.83;4.80;;;;;;;17.59;100.00;100211.10;1754463;80;21005;-57
2022/06/18 02:52:41;;;;;;;7.37;5.03;;;;;;;17.61;100.00;100217.45;1748512;80;21052;-55
2022/06/18 02:55:31;;;;;;;8.20;5.37;;;;;;;17.64;100.00;100219.11;1755209;80;21014;-56
2022/06/18 02:58:22;;;;;;;8.20;5.45;;;;;;;17.67;100.00;100212.06;1718279;82;21652;-56
2022/06/18 03:00:56;;;;;;;11.45;5.37;;;;;;;17.71;100.00;100211.89;1752750;80;20904;-57
2022/06/18 03:03:30;;;;;;;7.73;5.07;;;;;;;17.74;100.00;100210.64;1754084;80;20918;-59
2022/06/18 03:05:57;;;;;;;9.57;5.37;;;;;;;17.78;100.00;100207.05;1749002;80;21113;-61
2022/06/18 03:08:26;;;;;;;8.67;5.23;;;;;;;17.81;100.00;100207.39;1731319;82;21089;-54
2022/06/18 03:13:43;;;;;;;7.53;5.10;;;;;;;17.93;100.00;100209.48;1734539;82;21030;-57
2022/06/18 03:16:12;;;;;;;9.57;4.90;;;;;;;17.96;100.00;100210.88;1725679;81;21062;-55
2022/06/18 03:18:39;;;;;;;8.30;4.70;;;;;;;18.00;100.00;100215.96;1744445;81;20971;-55
2022/06/18 03:21:39;;;;;;;8.67;5.07;;;;;;;18.03;100.00;100212.83;1741503;81;21458;-57
2022/06/18 03:24:07;;;;;;;9.37;5.37;;;;;;;18.05;100.00;100217.38;1743643;81;21148;-62
2022/06/18 03:26:36;;;;;;;7.53;5.00;;;;;;;18.08;100.00;100208.20;1742642;81;20998;-63
2022/06/18 03:29:05;;;;;;;12.70;5.97;;;;;;;18.14;100.00;100210.69;1744682;81;21337;-58
2022/06/18 03:31:33;;;;;;;10.53;5.40;;;;;;;18.19;100.00;100213.45;1746992;81;21566;-57
2022/06/18 03:34:02;;;;;;;9.77;5.33;;;;;;;18.23;100.00;100215.09;1743998;82;21038;-57
2022/06/18 03:36:30;;;;;;;11.57;5.90;;;;;;;18.27;100.00;100214.11;1741363;81;21126;-60
2022/06/18 03:38:58;;;;;;;7.63;5.00;;;;;;;18.33;100.00;100215.80;1744013;81;21455;-58
2022/06/18 03:41:27;;;;;;;9.17;5.40;;;;;;;18.36;100.00;100208.73;1744966;81;21005;-55
2022/06/18 03:43:56;;;;;;;9.27;5.47;;;;;;;18.43;100.00;100206.23;1726305;82;21059;-55
2022/06/18 03:46:24;;;;;;;6.97;5.00;;;;;;;18.53;100.00;100203.52;1710813;82;21516;-64
2022/06/18 03:48:59;;;;;;;11.80;5.87;;;;;;;18.62;100.00;100210.80;1709144;83;22341;-56
2022/06/18 03:51:30;;;;;;;10.47;5.70;;;;;;;18.64;100.00;100207.95;1670412;85;21044;-56
2022/06/18 03:53:57;;;;;;;9.63;6.20;;;;;;;18.69;100.00;100206.18;1708110;83;20901;-55
2022/06/18 03:56:27;;;;;;;9.93;6.80;;;;;;;18.77;100.00;100208.19;1707012;82;21106;-59
2022/06/18 03:58:55;;;;;;;12.40;7.08;;;;;;;18.82;100.00;100213.55;1710923;82;21253;-56
2022/06/18 04:01:27;;;;;;;10.60;5.87;;;;;;;18.85;100.00;100206.47;1708673;83;21175;-56
2022/06/18 04:03:54;;;;;;;8.53;6.37;;;;;;;18.92;100.00;100206.59;1710095;83;21016;-55
2022/06/18 04:06:24;;;;;;;12.47;7.23;;;;;;;18.95;100.00;100205.33;1719512;83;20982;-64
2022/06/18 04:08:51;;;;;;;13.63;8.03;;;;;;;18.98;100.00;100207.50;1721902;82;21837;-56
2022/06/18 04:11:21;;;;;;;10.47;7.77;;;;;;;19.01;100.00;100208.31;1725715;82;21050;-56
2022/06/18 04:13:48;;;;;;;10.57;6.43;;;;;;;19.01;100.00;100207.00;1723759;81;21132;-56
2022/06/18 04:16:35;;;;;;;13.73;9.03;;;;;;;19.01;100.00;100204.88;1714048;82;21049;-57
2022/06/18 04:19:10;;;;;;;12.37;8.93;;;;;;;19.01;100.00;100214.92;1722240;83;21109;-59
2022/06/18 04:21:37;;;;;;;9.63;7.17;;;;;;;19.01;100.00;100208.31;1697853;83;21069;-56
2022/06/18 04:24:05;;;;;;;13.63;8.60;;;;;;;19.00;100.00;100212.01;1722919;83;21528;-64
2022/06/18 04:26:35;;;;;;;13.07;8.27;;;;;;;19.02;100.00;100219.19;1710198;83;21913;-56
2022/06/18 04:29:02;;;;;;;10.97;7.37;;;;;;;19.06;100.00;100215.02;1723160;83;21824;-56
2022/06/18 04:31:30;;;;;;;11.93;8.30;;;;;;;19.10;100.00;100216.14;1722381;82;21015;-56
2022/06/18 04:33:58;;;;;;;13.93;7.27;;;;;;;19.13;100.00;100211.70;1722980;83;20947;-57
2022/06/18 04:36:38;;;;;;;8.80;6.60;;;;;;;19.18;100.00;100210.45;1690876;83;21485;-57
2022/06/18 04:39:08;;;;;;;7.87;5.97;;;;;;;19.25;100.00;100212.14;1690798;83;21288;-56
2022/06/18 04:41:41;;;;;;;8.47;5.87;;;;;;;19.34;100.00;100212.80;1699723;83;21038;-64
2022/06/18 04:44:10;;;;;;;10.37;4.80;;;;;;;19.38;100.00;100213.12;1722480;82;21359;-57
2022/06/18 04:46:38;;;;;;;7.93;5.53;;;;;;;19.42;100.00;100206.30;1723542;83;21105;-56
2022/06/18 04:49:07;;;;;;;10.70;5.87;;;;;;;19.48;100.00;100213.28;1723097;83;20999;-58
2022/06/18 04:51:34;;;;;;;8.67;5.10;;;;;;;19.54;100.00;100207.00;1722342;82;21261;-59
2022/06/18 04:54:01;;;;;;;8.83;4.80;;;;;;;19.54;100.00;100206.20;1722831;83;20963;-63
2022/06/18 04:56:29;;;;;;;7.57;5.30;;;;;;;19.54;100.00;100206.20;1723737;82;21098;-55
2022/06/18 04:58:56;;;;;;;7.10;5.00;;;;;;;19.56;100.00;100200.96;1723720;81;21122;-56
2022/06/18 05:01:28;;;;;;;7.43;5.20;;;;;;;19.63;100.00;100203.47;1723980;82;21257;-56
2022/06/18 05:03:56;;;;;;;7.07;5.50;;;;;;;19.65;100.00;100204.01;1695252;83;21156;-63
2022/06/18 05:06:29;;;;;;;9.77;5.00;;;;;;;19.68;100.00;100203.53;1659779;85;21469;-56
2022/06/18 05:08:58;;;;;;;10.10;5.07;;;;;;;19.71;100.00;100199.61;1687600;83;20996;-58
2022/06/18 05:11:36;;;;;;;9.17;4.87;;;;;;;19.78;100.00;100201.55;1674095;83;21019;-64
2022/06/18 05:14:07;;;;;;;8.93;5.42;;;;;;;19.84;100.00;100207.17;1701578;83;21468;-58
2022/06/18 05:16:36;;;;;;;7.47;5.13;;;;;;;19.89;100.00;100205.41;1701997;83;21183;-56
2022/06/18 05:19:04;;;;;;;6.37;4.70;;;;;;;19.97;100.00;100205.50;1681997;83;20904;-57
2022/06/18 05:21:31;;;;;;;8.07;5.30;;;;;;;20.05;100.00;100205.06;1720292;82;21114;-55
2022/06/18 05:23:58;;;;;;;9.73;5.33;;;;;;;20.14;100.00;100201.45;1691277;83;21054;-56
2022/06/18 05:26:26;;;;;;;10.83;5.50;;;;;;;20.22;100.00;100205.50;1674823;85;21350;-59
2022/06/18 05:28:54;;;;;;;10.47;5.83;;;;;;;20.34;100.00;100203.52;1689998;84;21443;-57
2022/06/18 05:31:22;;;;;;;8.80;6.00;;;;;;;20.44;100.00;100206.27;1718482;82;21552;-55
2022/06/18 05:33:49;;;;;;;10.83;6.20;;;;;;;20.57;100.00;100212.55;1718894;81;21500;-56
2022/06/18 05:36:19;;;;;;;8.00;5.73;;;;;;;20.70;100.00;100201.27;1717009;83;22383;-57
2022/06/18 05:38:47;;;;;;;8.90;6.03;;;;;;;20.85;100.00;100202.72;1718493;82;21353;-55
2022/06/18 05:41:16;;;;;;;10.07;6.47;;;;;;;20.93;100.00;100206.23;1717429;81;21299;-55
2022/06/18 05:43:43;;;;;;;22.17;9.07;;;;;;;20.99;100.00;100203.91;1718244;83;21016;-55
2022/06/18 05:46:12;;;;;;;12.27;7.23;;;;;;;21.08;100.00;100206.88;1718246;83;21093;-57
2022/06/18 05:48:39;;;;;;;8.47;5.90;;;;;;;21.24;100.00;100209.11;1717686;81;21010;-56
2022/06/18 05:51:07;;;;;;;9.23;6.53;;;;;;;21.38;100.00;100206.33;1714815;81;21039;-56
2022/06/18 05:53:34;;;;;;;7.97;5.30;;;;;;;21.53;100.00;100203.77;1719835;82;21126;-56
2022/06/18 05:56:06;;;;;;;8.60;5.87;;;;;;;21.70;100.00;100206.77;1667287;82;21059;-57
2022/06/18 05:58:35;;;;;;;9.73;6.50;;;;;;;21.87;100.00;100207.39;1706438;83;21086;-55
2022/06/18 06:01:04;;;;;;;10.03;5.50;;;;;;;22.05;100.00;100198.19;1714201;82;21639;-54
2022/06/18 06:03:32;;;;;;;7.13;5.13;;;;;;;22.22;100.00;100196.66;1720078;81;21141;-55
2022/06/18 06:06:00;;;;;;;9.63;5.70;;;;;;;22.50;100.00;100192.72;1718996;82;21250;-63
2022/06/18 06:08:29;;;;;;;8.23;5.40;;;;;;;22.77;100.00;100193.30;1705299;82;21543;-55
2022/06/18 06:13:42;;;;;;;10.83;5.80;;;;;;;23.36;100.00;100194.60;1746607;80;21009;-59
2022/06/18 06:16:11;;;;;;;9.07;5.40;;;;;;;23.73;100.00;100200.13;1754729;80;21086;-55
2022/06/18 06:18:38;;;;;;;7.80;5.50;;;;;;;23.93;100.00;100192.05;1754627;80;21141;-55
2022/06/18 06:21:06;;;;;;;6.87;4.90;;;;;;;24.30;97.58;100193.47;1754390;80;21053;-57
2022/06/18 06:23:33;;;;;;;8.30;5.10;;;;;;;24.76;92.01;100187.31;1754976;80;21174;-55
2022/06/18 06:26:02;;;;;;;10.53;5.10;;;;;;;25.21;86.87;100193.89;1754132;81;21502;-56
2022/06/18 06:28:30;;;;;;;8.07;4.97;;;;;;;25.84;82.70;100192.98;1755075;80;21021;-54
2022/06/18 06:30:57;;;;;;;6.43;4.60;;;;;;;26.80;76.23;100184.67;1754939;80;21136;-57
2022/06/18 06:33:24;;;;;;;6.90;5.15;;;;;;;27.80;65.29;100183.12;1753771;80;20970;-55
2022/06/18 06:35:52;;;;;;;7.53;4.67;;;;;;;28.79;59.03;100180.63;1754595;80;21103;-57
2022/06/18 06:38:19;;;;;;;8.60;5.05;;;;;;;29.81;54.53;100182.78;1755798;80;21802;-55
2022/06/18 06:40:47;;;;;;;6.12;4.67;;;;;;;30.92;49.90;100179.61;1754609;81;20945;-55
2022/06/18 06:43:15;;;;;;;7.72;4.30;;;;;;;31.88;46.71;100177.84;1754846;81;21094;-62
2022/06/18 06:45:43;;;;;;;5.75;4.05;;;;;;;32.67;43.88;100176.09;1754331;81;21531;-60
2022/06/18 06:48:12;;;;;;;7.30;4.10;;;;;;;33.36;41.46;100184.75;1754805;81;20895;-56
2022/06/18 06:50:40;;;;;;;4.78;3.35;;;;;;;33.77;38.64;100182.16;1755258;80;20991;-56
2022/06/18 06:53:07;;;;;;;5.80;3.37;;;;;;;34.07;37.91;100180.75;1755486;80;20922;-56
2022/06/18 06:58:22;;;;;;;5.30;3.40;;;;;;;34.05;36.62;100176.23;1755338;80;21507;-56
2022/06/18 07:00:55;;;;;;;7.40;3.80;;;;;;;34.10;36.66;100173.31;1755106;80;20947;-55
2022/06/18 07:03:27;;;;;;;6.72;4.00;;;;;;;34.44;36.51;100171.69;1753624;81;21823;-62
2022/06/18 07:05:56;;;;;;;5.92;3.08;;;;;;;34.96;35.93;100171.52;1754811;80;21672;-56
2022/06/18 07:08:26;;;;;;;5.00;3.15;;;;;;;35.38;34.73;100166.14;1754705;80;21461;-58
2022/06/18 07:10:53;;;;;;;5.08;2.83;;;;;;;35.75;32.09;100168.73;1754355;80;21476;-58
2022/06/18 07:13:21;;;;;;;4.50;2.50;;;;;;;36.18;30.51;100162.87;1754498;80;21379;-58
2022/06/18 07:15:51;;;;;;;5.87;2.83;;;;;;;36.59;30.01;100157.03;1754615;81;21036;-57
2022/06/18 07:18:23;;;;;;;6.97;2.60;;;;;;;36.82;29.55;100161.89;1755268;80;20972;-58
2022/06/18 07:20:50;;;;;;;4.08;2.30;;;;;;;36.75;29.81;100157.72;1762048;80;21123;-57
2022/06/18 07:23:17;;;;;;;4.12;2.50;;;;;;;36.62;28.94;100154.96;1754586;80;21042;-58
2022/06/18 07:25:45;;;;;;;4.00;2.75;;;;;;;36.34;29.71;100160.64;1755032;80;21033;-56
2022/06/18 07:28:12;;;;;;;4.50;3.00;;;;;;;35.77;30.30;100154.27;1754991;80;21480;-58
2022/06/18 07:30:39;;;;;;;5.92;3.20;;;;;;;35.23;31.51;100165.02;1760059;80;20911;-59
2022/06/18 07:33:09;;;;;;;4.22;2.85;;;;;;;35.02;31.66;100164.74;1754410;80;22345;-57
2022/06/18 07:35:37;;;;;;;3.80;2.75;;;;;;;34.87;31.95;100168.20;1754080;80;20840;-58
2022/06/18 07:38:04;;;;;;;4.47;3.00;;;;;;;34.68;31.84;100168.11;1754465;80;21853;-58
2022/06/18 07:40:36;;;;;;;5.35;3.60;;;;;;;34.60;31.53;100165.21;1753920;81;21022;-57
2022/06/18 07:43:05;;;;;;;6.55;4.35;;;;;;;34.47;32.71;100168.30;1753894;81;21030;-57
2022/06/18 07:45:33;;;;;;;5.22;3.87;;;;;;;34.37;33.35;100162.83;1725185;81;21856;-57
2022/06/18 07:48:01;;;;;;;5.85;3.30;;;;;;;34.47;32.41;100162.31;1754686;80;21462;-57
2022/06/18 07:50:30;;;;;;;5.70;3.90;;;;;;;34.59;31.96;100159.59;1758051;80;20982;-57
2022/06/18 07:52:57;;;;;;;4.60;3.22;;;;;;;34.76;31.36;100160.38;1757907;80;20930;-57
2022/06/18 07:55:26;;;;;;;5.65;3.00;;;;;;;34.91;31.14;100158.81;1754328;80;21446;-63
2022/06/18 07:57:54;;;;;;;5.67;2.80;;;;;;;34.76;30.37;100150.33;1755156;80;21151;-57
2022/06/18 08:00:22;;;;;;;4.50;3.05;;;;;;;34.47;30.61;100152.84;1754523;80;21004;-56
2022/06/18 08:02:51;;;;;;;5.00;2.62;;;;;;;34.54;29.85;100148.99;1754538;80;21037;-59
2022/06/18 08:05:22;;;;;;;3.70;2.50;;;;;;;34.65;30.44;100147.92;1754317;80;21495;-57
2022/06/18 08:07:51;;;;;;;4.05;2.60;;;;;;;34.75;30.33;100146.63;1737218;82;21262;-57
2022/06/18 08:10:18;;;;;;;3.92;2.12;;;;;;;34.97;29.30;100142.53;1745403;81;21165;-56
2022/06/18 08:12:46;;;;;;;3.15;1.95;;;;;;;35.26;27.47;100138.01;1742012;81;21529;-59
2022/06/18 08:15:13;;;;;;;3.77;1.82;;;;;;;35.71;26.98;100131.84;1745999;81;21100;-57
2022/06/18 08:17:42;;;;;;;3.05;1.82;;;;;;;36.13;26.23;100130.58;1743919;81;21026;-58
2022/06/18 08:20:10;;;;;;;4.10;1.90;;;;;;;36.44;25.42;100123.38;1742375;81;20934;-57
2022/06/18 08:22:38;;;;;;;3.47;1.67;;;;;;;36.66;25.15;100123.99;1745068;81;22395;-56
2022/06/18 08:25:07;;;;;;;2.92;1.75;;;;;;;36.84;24.28;100112.65;1741736;81;20964;-64
2022/06/18 08:27:34;;;;;;;3.62;1.90;;;;;;;37.18;23.62;100111.64;1745726;81;21045;-60
2022/06/18 08:30:02;;;;;;;3.12;1.90;;;;;;;37.46;21.72;100111.27;1743649;82;21447;-57
2022/06/18 08:32:29;;;;;;;3.27;2.20;;;;;;;37.63;21.14;100112.66;1746620;81;21618;-58
2022/06/18 08:34:56;;;;;;;2.85;1.60;;;;;;;37.88;20.71;100108.89;1743840;81;22387;-59
2022/06/18 08:37:24;;;;;;;3.55;1.77;;;;;;;38.10;21.34;100115.94;1741770;81;20947;-59
2022/06/18 08:39:53;;;;;;;3.22;1.60;;;;;;;38.31;20.26;100110.72;1746042;81;21446;-57
2022/06/18 08:42:53;;;;;;;3.12;1.50;;;;;;;38.38;19.62;100112.17;1744769;81;20930;-56
2022/06/18 08:45:44;;;;;;;3.33;1.42;;;;;;;38.33;19.52;100115.19;1744233;81;21072;-57
2022/06/18 08:48:44;;;;;;;4.80;1.37;;;;;;;38.54;19.30;100109.20;1719786;83;21539;-57
2022/06/18 08:51:33;;;;;;;2.12;1.20;;;;;;;38.85;19.30;100112.00;1741885;81;20920;-56
2022/06/18 08:54:23;;;;;;;3.67;1.40;;;;;;;39.11;18.87;100100.10;1742798;81;20999;-61
2022/06/18 08:56:58;;;;;;;3.55;1.62;;;;;;;39.05;19.42;100111.73;1735905;82;20982;-58
2022/06/18 08:59:37;;;;;;;2.77;1.40;;;;;;;38.61;20.31;100114.71;1726088;82;21095;-58
2022/06/18 09:02:18;;;;;;;3.55;1.60;;;;;;;38.16;20.88;100115.81;1743047;82;21113;-56
2022/06/18 09:05:00;;;;;;;4.90;1.98;;;;;;;37.75;21.20;100130.68;1710162;83;21016;-62
2022/06/18 09:07:38;;;;;;;5.08;2.08;;;;;;;37.37;22.43;100124.33;1712113;83;22352;-56
2022/06/18 09:10:36;;;;;;;4.12;1.92;;;;;;;36.58;23.60;100133.75;1755194;80;20985;-58
2022/06/18 09:13:11;;;;;;;3.98;2.20;;;;;;;35.22;25.28;100143.14;1755025;80;21061;-56
2022/06/18 09:15:44;;;;;;;4.67;2.00;;;;;;;33.84;26.66;100144.52;1754973;81;20895;-57
2022/06/18 09:18:22;;;;;;;3.02;1.57;;;;;;;32.84;27.26;100148.10;1759172;80;20988;-59
2022/06/18 09:20:54;;;;;;;3.37;1.75;;;;;;;32.03;27.31;100161.64;1754352;81;21539;-55
2022/06/18 09:23:30;;;;;;;9.58;1.90;;;;;;;31.17;28.55;100163.11;1755230;81;21567;-54
2022/06/18 09:25:58;;;;;;;3.62;1.60;;;;;;;30.49;28.90;100168.89;1754566;81;21021;-64
2022/06/18 09:28:29;;;;;;;3.12;1.80;;;;;;;29.93;29.63;100175.97;1743410;81;21454;-55
2022/06/18 09:31:13;;;;;;;4.22;1.77;;;;;;;29.44;30.23;100175.23;1755762;80;20916;-58
2022/06/18 09:33:51;;;;;;;3.77;2.00;;;;;;;29.02;31.34;100183.58;1703194;81;20902;-63
2022/06/18 09:36:24;;;;;;;2.02;1.40;;;;;;;28.70;32.42;100184.61;1755649;80;21587;-55
2022/06/18 09:38:59;;;;;;;5.47;2.25;;;;;;;28.52;34.78;100185.58;1755987;80;21003;-55
2022/06/18 09:41:30;;;;;;;3.45;1.90;;;;;;;28.26;37.48;100182.14;1749824;81;21305;-63
2022/06/18 09:44:07;;;;;;;5.37;2.25;;;;;;;28.02;38.31;100178.92;1754281;81;21058;-56
2022/06/18 09:46:42;;;;;;;3.37;2.00;;;;;;;27.77;38.19;100184.26;1745087;80;21044;-56
2022/06/18 09:49:11;;;;;;;4.37;1.77;;;;;;;27.49;37.70;100185.59;1716095;82;20956;-59
2022/06/18 09:52:07;;;;;;;4.28;1.67;;;;;;;27.40;39.96;100169.44;1754210;81;20980;-63
2022/06/18 09:54:52;;;;;;;4.35;1.70;;;;;;;27.40;41.83;100178.80;1746427;80;22141;-56
2022/06/18 09:57:23;;;;;;;7.80;2.45;;;;;;;27.38;43.47;100170.81;1754108;80;21114;-56
2022/06/18 10:00:07;;;;;;;3.75;1.75;;;;;;;27.35;43.53;100170.88;1755094;81;21028;-56
2022/06/18 10:02:47;;;;;;;3.53;1.47;;;;;;;27.50;42.53;100164.41;1754189;80;20950;-57
2022/06/18 10:08:04;;;;;;;2.25;1.40;;;;;;;28.37;38.78;100181.38;1734219;80;21117;-63
2022/06/18 10:10:32;;;;;;;3.70;1.60;;;;;;;28.85;37.80;100179.42;1727069;80;21005;-62
2022/06/18 10:13:01;;;;;;;2.27;1.30;;;;;;;29.23;36.36;100175.77;1727850;80;21090;-56
2022/06/18 10:15:29;;;;;;;3.22;1.57;;;;;;;29.55;35.60;100179.22;1726660;83;21026;-56
2022/06/18 10:18:08;;;;;;;2.60;1.50;;;;;;;29.79;34.83;100172.88;1726508;83;21007;-56
2022/06/18 10:20:57;;;;;;;2.85;1.55;;;;;;;29.89;35.03;100177.18;1716188;82;21373;-62
2022/06/18 10:23:54;;;;;;;3.20;1.75;;;;;;;29.91;33.69;100168.80;1727478;80;21060;-56
2022/06/18 10:26:37;;;;;;;4.37;1.85;;;;;;;29.96;34.09;100169.41;1726389;83;21585;-56
2022/06/18 10:29:18;;;;;;;3.00;1.72;;;;;;;30.06;34.77;100166.98;1727014;80;21061;-58
2022/06/18 10:32:04;;;;;;;3.22;1.80;;;;;;;30.06;33.30;100158.92;1727199;80;21077;-56
2022/06/18 10:34:49;;;;;;;4.25;2.22;;;;;;;29.98;32.84;100157.02;1727725;80;21798;-63
2022/06/18 10:37:37;;;;;;;4.17;2.10;;;;;;;29.90;32.63;100156.47;1726836;80;21078;-57
2022/06/18 10:40:35;;;;;;;5.12;1.90;;;;;;;29.94;31.90;100154.73;1726265;83;21094;-64
2022/06/18 10:43:33;;;;;;;3.60;2.00;;;;;;;29.85;32.87;100157.39;1725819;83;21932;-57
2022/06/18 10:46:11;;;;;;;3.02;1.42;;;;;;;29.76;32.68;100161.41;1667159;80;22076;-63
2022/06/18 10:48:46;;;;;;;3.58;1.90;;;;;;;29.75;33.54;100159.84;1725415;80;21340;-56
2022/06/18 10:51:20;;;;;;;2.60;1.50;;;;;;;29.74;33.24;100148.86;1728635;80;21026;-65
2022/06/18 10:53:57;;;;;;;2.85;1.75;;;;;;;29.66;32.19;100148.27;1725997;82;21495;-64
2022/06/18 10:56:33;;;;;;;2.92;1.72;;;;;;;29.61;31.57;100148.43;1727555;80;21456;-57
2022/06/18 10:59:02;;;;;;;2.40;1.37;;;;;;;29.62;31.62;100151.34;1727265;80;21493;-57
2022/06/18 11:01:38;;;;;;;2.90;1.55;;;;;;;29.81;32.13;100151.88;1727306;80;21345;-62
2022/06/18 11:04:28;;;;;;;3.27;1.60;;;;;;;30.03;32.41;100159.55;1728163;80;22453;-56
2022/06/18 11:07:01;;;;;;;3.63;1.80;;;;;;;30.12;33.22;100168.42;1727558;80;22037;-66
2022/06/18 11:09:45;;;;;;;4.60;2.27;;;;;;;30.04;34.57;100166.49;1725855;83;21462;-57
2022/06/18 11:12:32;;;;;;;3.17;1.60;;;;;;;29.67;35.78;100179.98;1726611;80;21014;-57
2022/06/18 11:15:00;;;;;;;3.00;2.00;;;;;;;29.15;36.91;100171.16;1728030;80;21624;-57
2022/06/18 11:17:31;;;;;;;2.90;1.85;;;;;;;28.62;37.57;100182.67;1720302;80;20982;-56
2022/06/18 11:20:24;;;;;;;2.75;1.75;;;;;;;28.23;37.80;100176.05;1725745;80;21488;-58
2022/06/18 11:23:03;;;;;;;3.00;1.60;;;;;;;27.94;37.10;100187.13;1723860;80;21503;-56
2022/06/18 11:25:42;;;;;;;2.65;1.70;;;;;;;27.63;38.14;100182.92;1716101;83;20991;-57
2022/06/18 11:28:23;;;;;;;3.22;1.40;;;;;;;27.28;40.25;100177.72;1726798;80;21232;-56
2022/06/18 11:30:51;;;;;;;2.95;1.62;;;;;;;26.49;44.03;100190.50;1725977;82;21117;-57
2022/06/18 11:33:29;;;;;;;3.63;1.60;;;;;;;26.49;44.03;100190.50;1727072;80;21114;-57
2022/06/18 11:35:56;;;;;;;2.37;1.30;;;;;;;26.12;44.30;100188.59;1725962;82;21050;-56
2022/06/18 11:38:32;;;;;;;4.03;1.70;;;;;;;25.74;46.51;100184.51;1725972;81;21078;-56
2022/06/18 11:41:03;;;;;;;2.73;1.60;;;;;;;25.48;48.99;100176.00;1727547;80;21513;-56
2022/06/18 11:43:56;;;;;;;3.50;1.83;;;;;;;25.30;49.75;100176.72;1723328;83;20978;-57
2022/06/18 11:46:48;;;;;;;6.53;2.23;;;;;;;25.18;50.98;100175.77;1726848;80;21089;-56
2022/06/18 11:49:21;;;;;;;2.80;1.43;;;;;;;25.07;50.19;100174.25;1707836;83;22072;-55
2022/06/18 11:52:09;;;;;;;2.07;1.30;;;;;;;25.06;50.39;100172.13;1708552;82;20939;-57
2022/06/18 11:55:05;;;;;;;4.27;1.40;;;;;;;25.07;50.04;100178.25;1699038;83;21769;-56
2022/06/18 11:57:43;;;;;;;4.30;2.50;;;;;;;24.96;52.56;100168.21;1690485;84;20947;-55
2022/06/18 12:00:18;;;;;;;5.00;2.27;;;;;;;24.74;60.97;100167.36;1726537;80;21054;-57
2022/06/18 12:02:59;;;;;;;5.27;2.50;;;;;;;24.59;73.59;100154.16;1718459;83;21067;-63